Terminal Aerodrome Forecast
Issued by NWS Sterling, VA

Current Version | Previous Version | Graphics & Text | Print | Product List | Glossary On
Versions: 1 2 3 4 5 6 7 8 9 10 11 12 13 14 15 16 17 18 19 20 21
000
FTUS41 KLWX 291100
TAFIAD
TAF
KIAD 291132Z 2912/3018 VRB04KT P6SM BKN100
     FM291700 16008G16KT P6SM SCT050 OVC090
     FM292000 17010KT 3SM -RAPL BKN025 OVC050
     FM300000 18009KT P6SM SCT025 BKN050
     FM300400 22008KT P6SM BKN050
     FM300800 29012KT P6SM BKN050
     FM301400 31020G35KT P6SM BKN050=

USA.gov is the U.S. government's official web portal to all federal, state and local government web resources and services.